Fort Lewis, WA

7:51 PM PDT on July 27, 2017 (GMT -0700)
Gray Army Air Field

Weather History for KGRF - November, 2011

Change the Weather History Date:

Thursday, November 17, 2011

  Actual Average Record
Temperature  
Mean Temperature 41 °F -  
Max Temperature 48 °F 49 °F 60 °F (2008)
Min Temperature 34 °F 36 °F 20 °F (2014)
Degree Days  
Heating Degree Days 24    
Moisture  
Dew Point 37 °F    
Average Humidity 87    
Maximum Humidity 94    
Minimum Humidity 76    
Precipitation  
Precipitation 0.56 in - - ()
Sea Level Pressure  
Sea Level Pressure 29.77 in    
Wind  
Wind Speed 12 mph (South)    
Max Wind Speed 17 mph    
Max Gust Speed 32 mph    
Visibility 10 miles    
Events Rain , Snow    
Averages and records for this station are not official NWS values.
T = Trace of Precipitation, MM = Missing Value Source: NWS Daily Summary

Daily Weather History Graph

Daily Weather History Graph

Search for Another Location

Airport or City:

Trip Planner

Search our weather history database for the weather conditions in past years. The results will help you decide how hot, cold, wet, or windy it might be!

Date:

Astronomy

Nov. 17, 2011 Rise Set
Actual Time 7:16 AM PST 4:33 PM PST
Civil Twilight 6:43 AM PST 5:06 PM PST
Nautical Twilight 6:06 AM PST 5:44 PM PST
Astronomical Twilight 5:29 AM PST 6:20 PM PST
Moon 11:09 PM PST (11/17) 12:21 PM PST (11/17)
Length of Visible Light 10h 23m
Length of Day
9h 16m
Waning Gibbous, 59% of the Moon is Illuminated
Nov 17
Waning Gibbous
Nov 18
Last Quarter
Nov 24
New
Dec 2
First Quarter
Dec 10
Full

Hourly Weather History & Observations

Time (PST) Temp. Windchill Dew Point Humidity Pressure Visibility Wind Dir Wind Speed Gust Speed Precip Events Conditions
12:02 AM 48.2 °F - 42.8 °F 82% 29.71 in 10.0 mi SSW 11.5 mph - N/A Rain Light Rain
12:13 AM 48.2 °F - 42.8 °F 82% 29.71 in 10.0 mi SW 13.8 mph 21.9 mph N/A   Overcast
12:19 AM 48.2 °F - 42.8 °F 82% 29.72 in 10.0 mi SSW 13.8 mph - N/A   Mostly Cloudy
12:26 AM 48.2 °F - 42.8 °F 82% - 10.0 mi SW 16.1 mph 21.9 mph N/A   Mostly Cloudy
12:48 AM 46.4 °F 40.7 °F 41.0 °F 81% 29.73 in 10.0 mi SW 12.7 mph 21.9 mph N/A Rain Light Rain
12:55 AM 46.8 °F - 41.0 °F 80% 29.74 in 10.0 mi SSW 12.7 mph - 0.00 in Rain Light Rain
1:01 AM 46.4 °F 41.5 °F 41.0 °F 81% 29.74 in 10.0 mi South 10.4 mph - N/A   Mostly Cloudy
1:08 AM 46.4 °F 39.8 °F 41.0 °F 81% 29.75 in 10.0 mi SSW 16.1 mph 23.0 mph N/A Rain Light Rain
1:25 AM 46.4 °F 41.5 °F 39.2 °F 76% 29.76 in 10.0 mi SSW 10.4 mph 19.6 mph N/A   Scattered Clouds
1:33 AM 46.4 °F 40.4 °F 39.2 °F 76% 29.77 in 10.0 mi SSW 13.8 mph 21.9 mph N/A Rain Light Rain
1:42 AM 44.6 °F 37.4 °F 39.2 °F 81% 29.78 in 10.0 mi SW 16.1 mph 31.1 mph N/A Rain Light Rain
1:55 AM 43.5 °F 37.1 °F 37.9 °F 81% 29.79 in 10.0 mi SSW 12.7 mph 32.2 mph 0.01 in Rain Light Rain
2:04 AM 42.8 °F 37.0 °F 37.4 °F 81% - 10.0 mi South 10.4 mph - N/A   Overcast
2:27 AM 42.8 °F 36.6 °F 37.4 °F 81% 29.81 in 10.0 mi SSW 11.5 mph - N/A Rain Light Rain
2:49 AM 42.8 °F 36.2 °F 39.2 °F 87% 29.82 in 10.0 mi SSW 12.7 mph - N/A   Overcast
2:55 AM 42.4 °F 35.0 °F 38.1 °F 85% 29.83 in 10.0 mi SW 15.0 mph - 0.03 in Rain Light Rain
3:18 AM 41.0 °F 33.5 °F 37.4 °F 87% 29.83 in 10.0 mi South 13.8 mph - N/A Rain Light Rain
3:19 AM 41.0 °F 34.3 °F 37.4 °F 87% 29.83 in 10.0 mi South 11.5 mph - N/A   Overcast
3:39 AM 41.0 °F 34.7 °F 37.4 °F 87% 29.84 in 10.0 mi South 10.4 mph 25.3 mph N/A Rain Light Rain
3:55 AM 41.2 °F 33.7 °F 36.5 °F 83% 29.83 in 10.0 mi South 13.8 mph 25.3 mph 0.02 in Rain Light Rain
3:57 AM 41.0 °F 33.9 °F 35.6 °F 81% 29.83 in 10.0 mi South 12.7 mph 19.6 mph N/A   Mostly Cloudy
4:24 AM 39.2 °F 31.6 °F 35.6 °F 87% 29.84 in 10.0 mi South 12.7 mph - N/A Rain Light Rain
4:37 AM 39.2 °F 32.0 °F 35.6 °F 87% 29.84 in 10.0 mi South 11.5 mph 21.9 mph N/A   Mostly Cloudy
4:55 AM 39.7 °F 33.7 °F 36.1 °F 87% 29.84 in 10.0 mi South 9.2 mph - 0.00 in   Mostly Cloudy
5:37 AM 39.2 °F 31.6 °F 35.6 °F 87% 29.84 in 10.0 mi South 12.7 mph - N/A Rain Light Rain
5:55 AM 39.9 °F 32.9 °F 35.8 °F 85% 29.85 in 10.0 mi South 11.5 mph - 0.00 in Rain Light Rain
6:55 AM 39.0 °F 31.8 °F 36.3 °F 90% 29.86 in 10.0 mi South 11.5 mph - 0.00 in Rain Light Rain
7:01 AM 39.2 °F 32.5 °F 35.6 °F 87% 29.87 in 10.0 mi SSE 10.4 mph - N/A   Mostly Cloudy
7:40 AM 37.4 °F 29.8 °F 35.6 °F 93% 29.88 in 10.0 mi SE 11.5 mph - N/A Rain Light Rain
7:55 AM 37.8 °F 30.7 °F 35.6 °F 92% 29.88 in 10.0 mi SE 10.4 mph - 0.00 in   Mostly Cloudy
8:04 AM 37.4 °F 31.4 °F 35.6 °F 93% 29.89 in 10.0 mi SE 8.1 mph - N/A   Mostly Cloudy
8:16 AM 39.2 °F 33.6 °F 35.6 °F 87% 29.89 in 10.0 mi SE 8.1 mph - N/A Rain Light Rain
8:23 AM 39.2 °F 34.2 °F 35.6 °F 87% 29.90 in 10.0 mi SE 6.9 mph - N/A Rain Light Rain
8:55 AM 39.0 °F 31.8 °F 36.3 °F 90% 29.90 in 10.0 mi SSE 11.5 mph - 0.00 in Rain Light Rain
9:55 AM 39.6 °F 32.1 °F 36.1 °F 88% 29.88 in 10.0 mi SSE 12.7 mph - 0.00 in Rain Light Rain
10:09 AM 39.2 °F 33.0 °F 35.6 °F 87% 29.88 in 10.0 mi SSE 9.2 mph - N/A   Mostly Cloudy
10:34 AM 41.0 °F 35.2 °F 35.6 °F 81% 29.88 in 10.0 mi SSE 9.2 mph - N/A Rain Light Rain
10:55 AM 41.4 °F 35.2 °F 37.0 °F 85% 29.88 in 10.0 mi SSE 10.4 mph - 0.00 in Rain Light Rain
11:18 AM 42.8 °F 36.6 °F 37.4 °F 81% 29.87 in 10.0 mi SSE 11.5 mph - N/A   Mostly Cloudy
11:19 AM 42.8 °F 36.2 °F 37.4 °F 81% 29.87 in 10.0 mi SSE 12.7 mph - N/A Rain Light Rain
11:45 AM 42.8 °F 36.6 °F 37.4 °F 81% 29.86 in 10.0 mi SSE 11.5 mph - N/A   Scattered Clouds
11:46 AM 42.8 °F 36.6 °F 37.4 °F 81% 29.85 in 10.0 mi SSE 11.5 mph - N/A Rain Light Rain
11:55 AM 42.3 °F 36.8 °F 36.9 °F 81% 29.85 in 10.0 mi SSE 9.2 mph - 0.00 in Rain Light Rain
12:08 PM 41.0 °F 36.4 °F 35.6 °F 81% 29.84 in 10.0 mi South 6.9 mph - N/A Rain Light Rain
12:55 PM 40.5 °F 35.8 °F 36.5 °F 86% 29.82 in 6.0 mi SSW 6.9 mph - 0.08 in Rain Light Rain
1:01 PM 41.0 °F 35.2 °F 35.6 °F 81% 29.82 in 6.0 mi SSW 9.2 mph - N/A Rain Light Rain
1:16 PM 39.2 °F 32.0 °F 35.6 °F 87% 29.82 in 2.0 mi WSW 11.5 mph - N/A Rain Rain
1:17 PM 39.2 °F 31.6 °F 35.6 °F 87% 29.82 in 2.0 mi WSW 12.7 mph - N/A Rain Rain
1:27 PM 39.2 °F 35.9 °F 35.6 °F 87% 29.81 in 3.0 mi South 4.6 mph - N/A Rain Light Rain
1:37 PM 39.2 °F 35.9 °F 37.4 °F 93% 29.80 in 10.0 mi SSE 4.6 mph - N/A   Overcast
1:48 PM 41.0 °F 35.8 °F 37.4 °F 87% 29.80 in 10.0 mi SE 8.1 mph - N/A Rain Light Rain
1:55 PM 40.6 °F 34.8 °F 38.3 °F 91% 29.79 in 10.0 mi SSE 9.2 mph - 0.13 in   Mostly Cloudy
1:56 PM 41.0 °F 35.8 °F 37.4 °F 87% 29.79 in 10.0 mi SSE 8.1 mph - N/A   Overcast
2:20 PM 41.0 °F 34.7 °F 37.4 °F 87% 29.78 in 10.0 mi SSE 10.4 mph - N/A Rain Light Rain
2:33 PM 41.0 °F 34.3 °F 37.4 °F 87% 29.77 in 10.0 mi SSE 11.5 mph - N/A Rain Light Rain
2:44 PM 41.0 °F 35.2 °F 37.4 °F 87% 29.77 in 10.0 mi SSE 9.2 mph - N/A   Overcast
2:55 PM 41.0 °F 35.2 °F 38.3 °F 90% 29.77 in 10.0 mi SSE 9.2 mph - 0.00 in Rain Light Rain
2:57 PM 41.0 °F 35.2 °F 39.2 °F 93% 29.77 in 10.0 mi SSE 9.2 mph - N/A Rain Light Rain
3:21 PM 41.0 °F 32.5 °F 37.4 °F 87% 29.75 in 10.0 mi SSE 17.3 mph 25.3 mph N/A   Overcast
3:49 PM 39.2 °F 30.5 °F 35.6 °F 87% 29.74 in 10.0 mi SSE 16.1 mph - N/A Rain Light Rain
3:55 PM 38.8 °F 30.4 °F 36.5 °F 91% 29.74 in 10.0 mi SSE 15.0 mph - 0.05 in Rain Light Rain
4:07 PM 39.2 °F 32.5 °F 35.6 °F 87% 29.74 in 10.0 mi South 10.4 mph - N/A   Mostly Cloudy
4:19 PM 39.2 °F 33.0 °F 37.4 °F 93% 29.74 in 10.0 mi SSE 9.2 mph - N/A Rain Light Rain
4:46 PM 39.2 °F 32.0 °F 37.4 °F 93% 29.73 in 10.0 mi SSE 11.5 mph - N/A Rain Light Rain
4:55 PM 39.2 °F 33.6 °F 36.5 °F 90% 29.73 in 10.0 mi South 8.1 mph - 0.00 in Rain Light Rain
5:29 PM 39.2 °F 32.0 °F 37.4 °F 93% 29.72 in 10.0 mi SSE 11.5 mph - N/A   Overcast
5:36 PM 39.2 °F 32.5 °F 37.4 °F 93% 29.71 in 10.0 mi SSE 10.4 mph - N/A Rain Light Rain
5:55 PM 39.0 °F 30.6 °F 36.3 °F 90% 29.70 in 10.0 mi SSE 15.0 mph - 0.02 in Rain Light Rain
6:00 PM 39.2 °F 30.2 °F 35.6 °F 87% 29.70 in 10.0 mi SSE 17.3 mph - N/A Rain Light Rain
6:55 PM 37.9 °F 31.5 °F 35.6 °F 91% 29.68 in 10.0 mi SSE 9.2 mph - 0.04 in   Overcast
7:06 PM 37.4 °F 31.4 °F 35.6 °F 93% 29.68 in 10.0 mi South 8.1 mph - N/A Rain Light Rain
7:45 PM 37.4 °F 30.3 °F 35.6 °F 93% 29.66 in 10.0 mi SE 10.4 mph - N/A Rain Light Rain
7:55 PM 37.4 °F 30.3 °F 35.8 °F 94% 29.65 in 10.0 mi SSE 10.4 mph - 0.02 in   Overcast
8:00 PM 37.4 °F 30.3 °F 35.6 °F 93% 29.65 in 10.0 mi SE 10.4 mph - N/A   Mostly Cloudy
8:09 PM 37.4 °F 30.3 °F 35.6 °F 93% 29.65 in 10.0 mi SSE 10.4 mph - N/A Rain Light Rain
8:21 PM 37.4 °F 29.3 °F 35.6 °F 93% 29.65 in 10.0 mi SSE 12.7 mph - N/A   Scattered Clouds
8:48 PM 37.4 °F 28.9 °F 35.6 °F 93% 29.65 in 10.0 mi South 13.8 mph - N/A Rain Light Rain
8:55 PM 37.6 °F 29.1 °F 34.9 °F 90% 29.65 in 10.0 mi South 13.8 mph - 0.01 in Rain Light Rain
9:24 PM 35.6 °F 29.9 °F 33.8 °F 93% 29.65 in 9.0 mi SSE 6.9 mph - N/A Rain Light Rain
9:55 PM 36.0 °F 30.3 °F 34.2 °F 93% 29.63 in 10.0 mi SE 6.9 mph - 0.07 in Rain Light Rain
9:57 PM 35.6 °F 29.9 °F 33.8 °F 93% 29.63 in 10.0 mi SE 6.9 mph - N/A   Overcast
10:08 PM 35.6 °F 28.6 °F 33.8 °F 93% 29.64 in 10.0 mi SSE 9.2 mph - N/A   Overcast
10:34 PM 35.6 °F 29.2 °F 33.8 °F 93% 29.62 in 10.0 mi SE 8.1 mph - N/A   Scattered Clouds
10:55 PM 34.2 °F 27.5 °F 32.5 °F 94% 29.62 in 10.0 mi SSE 8.1 mph - 0.00 in   Scattered Clouds
11:23 PM 35.6 °F 29.2 °F 33.8 °F 93% 29.63 in 10.0 mi SW 8.1 mph - N/A Rain Light Rain
11:37 PM 35.6 °F 28.0 °F 33.8 °F 93% 29.64 in 5.0 mi South 10.4 mph - N/A Rain Light Rain
11:43 PM 35.6 °F 28.0 °F 33.8 °F 93% 29.63 in 7.0 mi SSE 10.4 mph - N/A Snow Light Snow
11:55 PM 34.7 °F 26.4 °F 32.9 °F 93% 29.62 in 10.0 mi SSE 11.5 mph - 0.08 in   Overcast